ZKXLT NZHN-NZHN
Flight info
| Callsign | ZKXLT |
|---|---|
| Flight time | 0h 23m |
| Altitude | 1200 |
| Route | NZHN/NZHN |
| Aircraft | C182/L-V/N |
Departure
| Time | 2026-04-16 10:27 |
|---|---|
| Airport | Hamilton International Airport (NZHN) |
Arrival
| Time | 2026-04-16 10:51 |
|---|---|
| Airport | Hamilton International Airport (NZHN) |
| Time | Latitude | Longitude | Altitude | Speed | Heading |
|---|---|---|---|---|---|
| 2026-04-16 10:18 | -37.86385 | 175.32925 | 154 ft | 0 kts | 131° |
| 2026-04-16 10:23 | -37.86386 | 175.32930 | 154 ft | 3 kts | 91° |
| 2026-04-16 10:23 | -37.86386 | 175.32934 | 151 ft | 0 kts | 109° |
| 2026-04-16 10:23 | -37.86392 | 175.32950 | 151 ft | 8 kts | 115° |
| 2026-04-16 10:24 | -37.86401 | 175.33002 | 152 ft | 5 kts | 101° |
| 2026-04-16 10:24 | -37.86410 | 175.33056 | 154 ft | 8 kts | 105° |
| 2026-04-16 10:24 | -37.86414 | 175.33120 | 154 ft | 6 kts | 52° |
| 2026-04-16 10:24 | -37.86377 | 175.33144 | 154 ft | 7 kts | 17° |
| 2026-04-16 10:25 | -37.86319 | 175.33165 | 154 ft | 10 kts | 18° |
| 2026-04-16 10:25 | -37.86241 | 175.33192 | 155 ft | 13 kts | 17° |
| 2026-04-16 10:25 | -37.86145 | 175.33226 | 154 ft | 10 kts | 18° |
| 2026-04-16 10:25 | -37.86118 | 175.33246 | 155 ft | 0 kts | 73° |
| 2026-04-16 10:26 | -37.86119 | 175.33259 | 155 ft | 2 kts | 104° |
| 2026-04-16 10:26 | -37.86130 | 175.33291 | 156 ft | 6 kts | 148° |
| 2026-04-16 10:26 | -37.86144 | 175.33290 | 156 ft | 4 kts | 195° |
| 2026-04-16 10:27 | -37.86384 | 175.33204 | 157 ft | 66 kts | 200° |
| 2026-04-16 10:27 | -37.86886 | 175.33009 | 422 ft | 77 kts | 207° |
| 2026-04-16 10:27 | -37.87368 | 175.32739 | 776 ft | 74 kts | 231° |
| 2026-04-16 10:27 | -37.87326 | 175.32052 | 1059 ft | 97 kts | 298° |
| 2026-04-16 10:28 | -37.86578 | 175.31847 | 1205 ft | 136 kts | 10° |
| 2026-04-16 10:28 | -37.85695 | 175.32351 | 1248 ft | 142 kts | 17° |
| 2026-04-16 10:28 | -37.84808 | 175.32826 | 1184 ft | 127 kts | 12° |
| 2026-04-16 10:28 | -37.84395 | 175.33504 | 980 ft | 98 kts | 124° |
| 2026-04-16 10:29 | -37.84851 | 175.33726 | 713 ft | 65 kts | 197° |
| 2026-04-16 10:29 | -37.85237 | 175.33622 | 543 ft | 53 kts | 207° |
| 2026-04-16 10:29 | -37.85618 | 175.33490 | 398 ft | 62 kts | 207° |
| 2026-04-16 10:29 | -37.86036 | 175.33332 | 212 ft | 62 kts | 207° |
| 2026-04-16 10:30 | -37.86390 | 175.33197 | 159 ft | 53 kts | 199° |
| 2026-04-16 10:30 | -37.86837 | 175.33031 | 269 ft | 80 kts | 206° |
| 2026-04-16 10:30 | -37.87426 | 175.32808 | 482 ft | 94 kts | 206° |
| 2026-04-16 10:30 | -37.88029 | 175.32498 | 797 ft | 94 kts | 224° |
| 2026-04-16 10:31 | -37.88149 | 175.31727 | 1128 ft | 97 kts | 281° |
| 2026-04-16 10:31 | -37.87562 | 175.31294 | 1404 ft | 130 kts | 356° |
| 2026-04-16 10:31 | -37.86675 | 175.31870 | 1169 ft | 143 kts | 26° |
| 2026-04-16 10:31 | -37.85860 | 175.32412 | 1045 ft | 121 kts | 17° |
| 2026-04-16 10:32 | -37.85145 | 175.32807 | 985 ft | 102 kts | 15° |
| 2026-04-16 10:32 | -37.84875 | 175.33220 | 817 ft | 93 kts | 98° |
| 2026-04-16 10:32 | -37.85279 | 175.33591 | 573 ft | 66 kts | 198° |
| 2026-04-16 10:32 | -37.85660 | 175.33477 | 375 ft | 56 kts | 210° |
| 2026-04-16 10:33 | -37.86044 | 175.33327 | 212 ft | 56 kts | 208° |
| 2026-04-16 10:33 | -37.86396 | 175.33194 | 157 ft | 53 kts | 195° |
| 2026-04-16 10:33 | -37.86876 | 175.33012 | 260 ft | 86 kts | 205° |
| 2026-04-16 10:33 | -37.87454 | 175.32755 | 584 ft | 84 kts | 211° |
| 2026-04-16 10:34 | -37.87584 | 175.32144 | 856 ft | 88 kts | 288° |
| 2026-04-16 10:34 | -37.87229 | 175.31481 | 1054 ft | 98 kts | 309° |
| 2026-04-16 10:34 | -37.86478 | 175.31497 | 1207 ft | 131 kts | 24° |
| 2026-04-16 10:34 | -37.85666 | 175.32178 | 1248 ft | 147 kts | 28° |
| 2026-04-16 10:35 | -37.84785 | 175.32865 | 1310 ft | 150 kts | 30° |
| 2026-04-16 10:35 | -37.84085 | 175.33711 | 1192 ft | 132 kts | 70° |
| 2026-04-16 10:35 | -37.84358 | 175.34368 | 948 ft | 83 kts | 217° |
| 2026-04-16 10:35 | -37.84759 | 175.33831 | 628 ft | 87 kts | 224° |
| 2026-04-16 10:36 | -37.85283 | 175.33618 | 441 ft | 73 kts | 187° |
| 2026-04-16 10:36 | -37.85738 | 175.33456 | 305 ft | 71 kts | 209° |
| 2026-04-16 10:36 | -37.86169 | 175.33284 | 161 ft | 55 kts | 206° |
| 2026-04-16 10:36 | -37.86544 | 175.33145 | 179 ft | 74 kts | 200° |
| 2026-04-16 10:37 | -37.87068 | 175.32937 | 457 ft | 82 kts | 201° |
| 2026-04-16 10:37 | -37.87632 | 175.32712 | 731 ft | 86 kts | 212° |
| 2026-04-16 10:37 | -37.87637 | 175.32012 | 962 ft | 95 kts | 291° |
| 2026-04-16 10:37 | -37.87124 | 175.31450 | 1201 ft | 116 kts | 342° |
| 2026-04-16 10:38 | -37.86320 | 175.31840 | 1236 ft | 121 kts | 24° |
| 2026-04-16 10:38 | -37.85572 | 175.32367 | 1112 ft | 125 kts | 22° |
| 2026-04-16 10:38 | -37.84804 | 175.32851 | 1044 ft | 116 kts | 23° |
| 2026-04-16 10:38 | -37.84423 | 175.33482 | 859 ft | 90 kts | 112° |
| 2026-04-16 10:39 | -37.84869 | 175.33739 | 578 ft | 72 kts | 201° |
| 2026-04-16 10:39 | -37.85332 | 175.33611 | 355 ft | 65 kts | 209° |
| 2026-04-16 10:39 | -37.85782 | 175.33422 | 248 ft | 64 kts | 205° |
| 2026-04-16 10:39 | -37.86171 | 175.33277 | 159 ft | 54 kts | 202° |
| 2026-04-16 10:40 | -37.86567 | 175.33135 | 175 ft | 79 kts | 198° |
| 2026-04-16 10:40 | -37.87143 | 175.32930 | 421 ft | 91 kts | 201° |
| 2026-04-16 10:40 | -37.87730 | 175.32652 | 747 ft | 90 kts | 221° |
| 2026-04-16 10:40 | -37.87748 | 175.31927 | 1045 ft | 96 kts | 296° |
| 2026-04-16 10:41 | -37.87276 | 175.31289 | 1249 ft | 114 kts | 338° |
| 2026-04-16 10:41 | -37.86478 | 175.31682 | 1344 ft | 126 kts | 19° |
| 2026-04-16 10:41 | -37.85664 | 175.32139 | 1462 ft | 130 kts | 11° |
| 2026-04-16 10:41 | -37.84784 | 175.32588 | 1528 ft | 142 kts | 16° |
| 2026-04-16 10:42 | -37.83934 | 175.33080 | 1576 ft | 119 kts | 18° |
| 2026-04-16 10:42 | -37.83629 | 175.33846 | 1373 ft | 97 kts | 125° |
| 2026-04-16 10:42 | -37.84104 | 175.34013 | 999 ft | 70 kts | 197° |
| 2026-04-16 10:42 | -37.84544 | 175.33849 | 703 ft | 63 kts | 212° |
| 2026-04-16 10:43 | -37.85001 | 175.33682 | 563 ft | 72 kts | 197° |
| 2026-04-16 10:43 | -37.85434 | 175.33567 | 405 ft | 66 kts | 205° |
| 2026-04-16 10:43 | -37.85861 | 175.33379 | 278 ft | 66 kts | 199° |
| 2026-04-16 10:43 | -37.86271 | 175.33247 | 158 ft | 50 kts | 202° |
| 2026-04-16 10:44 | -37.86645 | 175.33111 | 182 ft | 75 kts | 198° |
| 2026-04-16 10:44 | -37.87183 | 175.32922 | 481 ft | 82 kts | 198° |
| 2026-04-16 10:44 | -37.87736 | 175.32642 | 780 ft | 85 kts | 223° |
| 2026-04-16 10:44 | -37.87738 | 175.31935 | 1027 ft | 95 kts | 295° |
| 2026-04-16 10:45 | -37.87319 | 175.31278 | 1175 ft | 110 kts | 320° |
| 2026-04-16 10:45 | -37.86485 | 175.31295 | 1207 ft | 132 kts | 15° |
| 2026-04-16 10:45 | -37.85627 | 175.31835 | 1211 ft | 144 kts | 22° |
| 2026-04-16 10:45 | -37.84740 | 175.32473 | 1106 ft | 153 kts | 27° |
| 2026-04-16 10:46 | -37.83927 | 175.33109 | 1167 ft | 114 kts | 31° |
| 2026-04-16 10:46 | -37.83886 | 175.33816 | 953 ft | 73 kts | 162° |
| 2026-04-16 10:46 | -37.84351 | 175.33852 | 720 ft | 71 kts | 195° |
| 2026-04-16 10:46 | -37.84842 | 175.33764 | 589 ft | 74 kts | 197° |
| 2026-04-16 10:47 | -37.85348 | 175.33589 | 406 ft | 75 kts | 197° |
| 2026-04-16 10:47 | -37.85816 | 175.33414 | 241 ft | 65 kts | 204° |
| 2026-04-16 10:47 | -37.86213 | 175.33263 | 160 ft | 51 kts | 200° |
| 2026-04-16 10:47 | -37.86630 | 175.33111 | 217 ft | 79 kts | 197° |
| 2026-04-16 10:48 | -37.87200 | 175.32882 | 487 ft | 91 kts | 200° |
| 2026-04-16 10:48 | -37.87754 | 175.32520 | 851 ft | 87 kts | 235° |
| 2026-04-16 10:48 | -37.87672 | 175.31755 | 1129 ft | 99 kts | 291° |
| 2026-04-16 10:48 | -37.87113 | 175.31191 | 1175 ft | 126 kts | 346° |
| 2026-04-16 10:49 | -37.86215 | 175.31504 | 1234 ft | 138 kts | 18° |
| 2026-04-16 10:49 | -37.85317 | 175.32023 | 1248 ft | 144 kts | 17° |
| 2026-04-16 10:49 | -37.84421 | 175.32537 | 1172 ft | 125 kts | 17° |
| 2026-04-16 10:49 | -37.84133 | 175.33286 | 993 ft | 93 kts | 118° |
| 2026-04-16 10:50 | -37.84575 | 175.33676 | 631 ft | 77 kts | 180° |
| 2026-04-16 10:50 | -37.85065 | 175.33675 | 368 ft | 66 kts | 195° |
| 2026-04-16 10:50 | -37.85498 | 175.33528 | 269 ft | 68 kts | 201° |
| 2026-04-16 10:50 | -37.85941 | 175.33367 | 188 ft | 61 kts | 200° |
| 2026-04-16 10:51 | -37.86306 | 175.33232 | 156 ft | 47 kts | 196° |
| 2026-04-16 10:51 | -37.86772 | 175.33057 | 240 ft | 84 kts | 201° |
| 2026-04-16 10:51 | -37.87365 | 175.32814 | 504 ft | 97 kts | 199° |
| 2026-04-16 10:51 | -37.87988 | 175.32485 | 863 ft | 94 kts | 229° |
| 2026-04-16 10:52 | -37.88023 | 175.31669 | 1046 ft | 107 kts | 294° |
| 2026-04-16 10:52 | -37.87460 | 175.31116 | 1155 ft | 121 kts | 348° |
| 2026-04-16 10:52 | -37.86609 | 175.31393 | 1110 ft | 124 kts | 12° |
| 2026-04-16 10:52 | -37.85811 | 175.31743 | 1064 ft | 124 kts | 13° |
| 2026-04-16 10:53 | -37.84953 | 175.32103 | 1069 ft | 135 kts | 12° |
| 2026-04-16 10:53 | -37.84093 | 175.32483 | 1063 ft | 111 kts | 12° |
| 2026-04-16 10:53 | -37.83589 | 175.33021 | 864 ft | 95 kts | 71° |
| 2026-04-16 10:53 | -37.83779 | 175.33750 | 756 ft | 86 kts | 152° |
| 2026-04-16 10:54 | -37.84343 | 175.33875 | 524 ft | 82 kts | 189° |
| 2026-04-16 10:54 | -37.84860 | 175.33742 | 398 ft | 71 kts | 198° |
| 2026-04-16 10:54 | -37.85336 | 175.33585 | 291 ft | 70 kts | 201° |
| 2026-04-16 10:54 | -37.85806 | 175.33415 | 230 ft | 70 kts | 197° |
| 2026-04-16 10:55 | -37.86224 | 175.33265 | 156 ft | 52 kts | 199° |
| 2026-04-16 10:55 | -37.86654 | 175.33105 | 216 ft | 81 kts | 197° |
| 2026-04-16 10:55 | -37.87244 | 175.32897 | 461 ft | 95 kts | 199° |
| 2026-04-16 10:55 | -37.87877 | 175.32652 | 852 ft | 92 kts | 217° |
| 2026-04-16 10:56 | -37.87867 | 175.31932 | 1049 ft | 99 kts | 294° |
| 2026-04-16 10:56 | -37.87458 | 175.31283 | 1169 ft | 97 kts | 322° |
| 2026-04-16 10:56 | -37.86694 | 175.31342 | 1130 ft | 127 kts | 15° |
| 2026-04-16 10:56 | -37.85885 | 175.31740 | 1195 ft | 122 kts | 13° |
| 2026-04-16 10:57 | -37.85090 | 175.32101 | 1139 ft | 122 kts | 9° |
| 2026-04-16 10:57 | -37.84386 | 175.32457 | 1140 ft | 95 kts | 39° |
| 2026-04-16 10:57 | -37.84274 | 175.33191 | 906 ft | 85 kts | 121° |
| 2026-04-16 10:57 | -37.84742 | 175.33577 | 621 ft | 82 kts | 173° |
| 2026-04-16 10:58 | -37.85288 | 175.33579 | 388 ft | 73 kts | 196° |
| 2026-04-16 10:58 | -37.85767 | 175.33432 | 240 ft | 67 kts | 200° |
| 2026-04-16 10:58 | -37.86185 | 175.33275 | 157 ft | 57 kts | 197° |
| 2026-04-16 10:58 | -37.86568 | 175.33139 | 196 ft | 71 kts | 200° |
| 2026-04-16 10:59 | -37.87087 | 175.32942 | 463 ft | 82 kts | 198° |
| 2026-04-16 10:59 | -37.87605 | 175.32616 | 782 ft | 88 kts | 229° |
| 2026-04-16 10:59 | -37.87641 | 175.31902 | 1105 ft | 93 kts | 294° |
| 2026-04-16 10:59 | -37.87134 | 175.31261 | 1208 ft | 124 kts | 333° |
| 2026-04-16 11:00 | -37.86263 | 175.31574 | 1293 ft | 128 kts | 27° |
| 2026-04-16 11:00 | -37.85463 | 175.32176 | 1213 ft | 140 kts | 22° |
| 2026-04-16 11:00 | -37.84599 | 175.32678 | 1093 ft | 134 kts | 19° |
| 2026-04-16 11:00 | -37.83886 | 175.33138 | 1075 ft | 92 kts | 26° |
| 2026-04-16 11:01 | -37.83539 | 175.33712 | 920 ft | 78 kts | 83° |
| 2026-04-16 11:01 | -37.83744 | 175.34227 | 736 ft | 69 kts | 179° |
| 2026-04-16 11:01 | -37.84184 | 175.34062 | 577 ft | 66 kts | 211° |
| 2026-04-16 11:01 | -37.84648 | 175.33960 | 408 ft | 71 kts | 188° |
| 2026-04-16 11:02 | -37.85119 | 175.33804 | 286 ft | 69 kts | 198° |
| 2026-04-16 11:02 | -37.85564 | 175.33632 | 193 ft | 66 kts | 199° |
| 2026-04-16 11:02 | -37.85945 | 175.33485 | 159 ft | 44 kts | 197° |
| 2026-04-16 11:02 | -37.86162 | 175.33375 | 161 ft | 18 kts | 256° |
| 2026-04-16 11:03 | -37.86128 | 175.33304 | 156 ft | 9 kts | 290° |
| 2026-04-16 11:03 | -37.86124 | 175.33235 | 154 ft | 8 kts | 209° |
| 2026-04-16 11:03 | -37.86192 | 175.33210 | 154 ft | 4 kts | 193° |
| 2026-04-16 11:04 | -37.86219 | 175.33203 | 154 ft | 3 kts | 195° |
| 2026-04-16 11:04 | -37.86247 | 175.33192 | 155 ft | 5 kts | 199° |
| 2026-04-16 11:04 | -37.86291 | 175.33175 | 154 ft | 8 kts | 197° |
| 2026-04-16 11:04 | -37.86351 | 175.33152 | 154 ft | 10 kts | 197° |
| 2026-04-16 11:05 | -37.86404 | 175.33102 | 154 ft | 10 kts | 287° |
| 2026-04-16 11:05 | -37.86389 | 175.33029 | 154 ft | 6 kts | 279° |